createdAt,value
2023-03-02T00:00:15.672Z,12.40
2023-03-02T00:01:23.393Z,7.90
2023-03-02T00:02:26.601Z,11.60
2023-03-02T00:03:32.088Z,10.38
2023-03-02T00:04:46.689Z,7.75
2023-03-02T00:05:49.906Z,11.12
2023-03-02T00:06:56.827Z,8.63
2023-03-02T00:08:00.792Z,8.40
2023-03-02T00:09:06.503Z,8.23
2023-03-02T00:10:10.556Z,10.63
2023-03-02T00:11:16.821Z,9.75
2023-03-02T00:12:20.006Z,10.48
2023-03-02T00:13:23.315Z,10.60
2023-03-02T00:14:26.452Z,9.77
2023-03-02T00:15:29.702Z,9.18
2023-03-02T00:16:33.406Z,9.25
2023-03-02T00:17:37.523Z,11.25
2023-03-02T00:18:41.489Z,9.55
2023-03-02T00:19:45.183Z,10.35
2023-03-02T00:20:48.147Z,8.70
2023-03-02T00:21:51.223Z,7.90
2023-03-02T00:22:54.258Z,7.97
2023-03-02T00:23:57.112Z,9.82
2023-03-02T00:25:00.091Z,8.98
2023-03-02T00:26:03.093Z,9.70
2023-03-02T00:27:06.200Z,10.10
2023-03-02T00:28:09.447Z,9.05
2023-03-02T00:29:12.647Z,8.48
2023-03-02T00:30:16.637Z,7.22
2023-03-02T00:31:21.040Z,11.15
2023-03-02T00:32:25.276Z,6.70
2023-03-02T00:33:28.490Z,9.55
2023-03-02T00:34:34.985Z,9.48
2023-03-02T00:35:39.756Z,7.72
2023-03-02T00:36:43.533Z,11.15
2023-03-02T00:37:47.123Z,9.73
2023-03-02T00:38:52.610Z,9.10
2023-03-02T00:39:55.656Z,9.50
2023-03-02T00:40:59.634Z,7.85
2023-03-02T00:42:03.030Z,9.30
2023-03-02T00:43:05.941Z,10.57
2023-03-02T00:44:08.919Z,9.88
2023-03-02T00:45:12.269Z,10.23
2023-03-02T00:46:18.461Z,10.45
2023-03-02T00:47:21.484Z,11.77
2023-03-02T00:48:25.390Z,9.82
2023-03-02T00:49:29.177Z,9.48
2023-03-02T00:50:32.854Z,8.90
2023-03-02T00:51:35.885Z,11.98
2023-03-02T00:52:38.870Z,11.52
2023-03-02T00:53:42.414Z,9.70
2023-03-02T00:54:45.524Z,10.02
2023-03-02T00:55:55.884Z,9.05
2023-03-02T00:56:59.266Z,8.32
2023-03-02T00:58:02.681Z,6.72
2023-03-02T00:59:26.759Z,9.48
2023-03-02T01:00:31.057Z,11.45
2023-03-02T01:01:34.383Z,10.38
2023-03-02T01:02:44.627Z,9.73
2023-03-02T01:03:47.861Z,11.23
2023-03-02T01:04:53.472Z,10.70
2023-03-02T01:05:56.642Z,8.05
2023-03-02T01:07:02.585Z,9.52
2023-03-02T01:08:05.883Z,8.52
2023-03-02T01:09:09.298Z,10.30
2023-03-02T01:10:13.476Z,11.52
2023-03-02T01:11:20.943Z,12.90
2023-03-02T01:12:24.027Z,10.07
2023-03-02T01:13:27.386Z,10.52
2023-03-02T01:14:30.486Z,8.05
2023-03-02T01:15:33.990Z,10.18
2023-03-02T01:16:37.741Z,10.45
2023-03-02T01:17:41.691Z,10.32
2023-03-02T01:18:46.620Z,11.77
2023-03-02T01:19:49.603Z,10.93
2023-03-02T01:21:02.970Z,8.95
2023-03-02T01:22:07.050Z,10.45
2023-03-02T01:23:10.119Z,11.55
2023-03-02T01:24:13.428Z,10.32
2023-03-02T01:25:16.801Z,11.80
2023-03-02T01:26:20.042Z,8.20
2023-03-02T01:27:23.048Z,11.48
2023-03-02T01:28:26.087Z,12.48
2023-03-02T01:29:29.103Z,9.23
2023-03-02T01:30:32.257Z,11.23
2023-03-02T01:31:35.373Z,9.63
2023-03-02T01:32:38.695Z,10.02
2023-03-02T01:33:41.759Z,10.60
2023-03-02T01:34:44.752Z,9.63
2023-03-02T01:35:48.480Z,10.57
2023-03-02T01:36:51.516Z,12.02
2023-03-02T01:37:54.589Z,9.55
2023-03-02T01:38:58.324Z,10.88
2023-03-02T01:40:03.930Z,12.35
2023-03-02T01:41:10.835Z,9.80
2023-03-02T01:42:13.847Z,10.50
2023-03-02T01:43:17.552Z,8.82
2023-03-02T01:44:39.614Z,9.20
2023-03-02T01:46:57.367Z,10.32
2023-03-02T01:48:00.559Z,10.57
2023-03-02T01:49:14.788Z,10.45
2023-03-02T01:50:21.288Z,9.13
2023-03-02T01:51:27.372Z,10.10
2023-03-02T01:52:35.188Z,12.88
2023-03-02T01:53:38.291Z,9.75
2023-03-02T01:54:43.061Z,10.15
2023-03-02T01:55:47.337Z,11.82
2023-03-02T01:56:59.709Z,11.20
2023-03-02T01:58:04.664Z,13.27
2023-03-02T01:59:12.258Z,9.48
2023-03-02T02:00:20.966Z,11.48
2023-03-02T02:01:24.239Z,9.57
2023-03-02T02:02:27.518Z,10.48
2023-03-02T02:03:31.432Z,14.90
2023-03-02T02:04:39.155Z,12.10
2023-03-02T02:05:47.007Z,12.10
2023-03-02T02:07:03.616Z,14.82
2023-03-02T02:08:08.078Z,17.73
2023-03-02T02:09:14.886Z,12.10
2023-03-02T02:10:18.509Z,11.77
2023-03-02T02:11:21.896Z,11.82
2023-03-02T02:12:25.063Z,11.90
2023-03-02T02:13:28.246Z,10.52
2023-03-02T02:14:31.210Z,11.02
2023-03-02T02:15:34.792Z,9.43
2023-03-02T02:16:39.006Z,8.23
2023-03-02T02:17:42.780Z,8.23
2023-03-02T02:18:47.761Z,8.95
2023-03-02T02:20:09.546Z,10.30
2023-03-02T02:21:16.001Z,14.18
2023-03-02T02:22:38.464Z,16.05
2023-03-02T02:24:09.124Z,9.57
2023-03-02T02:25:42.925Z,9.73
2023-03-02T02:26:56.833Z,11.15
2023-03-02T02:28:00.126Z,15.45
2023-03-02T02:29:08.541Z,10.27
2023-03-02T02:30:13.652Z,9.48
2023-03-02T02:31:28.151Z,10.27
2023-03-02T02:32:36.415Z,12.15
2023-03-02T02:33:42.865Z,10.43
2023-03-02T02:35:07.642Z,7.82
2023-03-02T02:36:19.207Z,8.55
2023-03-02T02:37:51.813Z,7.43
2023-03-02T02:38:56.708Z,10.45
2023-03-02T02:40:02.619Z,10.45
2023-03-02T02:41:11.828Z,10.40
2023-03-02T02:42:37.327Z,11.12
2023-03-02T02:43:40.391Z,10.10
2023-03-02T02:44:43.576Z,11.63
2023-03-02T02:45:49.348Z,9.32
2023-03-02T02:46:52.835Z,10.65
2023-03-02T02:47:56.744Z,10.90
2023-03-02T02:49:03.368Z,12.00
2023-03-02T02:50:07.201Z,11.95
2023-03-02T02:51:21.988Z,13.85
2023-03-02T02:52:28.551Z,11.30
2023-03-02T02:53:40.452Z,9.68
2023-03-02T02:54:47.819Z,11.30
2023-03-02T02:55:54.567Z,10.75
2023-03-02T02:57:00.092Z,10.27
2023-03-02T02:58:10.454Z,13.45
2023-03-02T02:59:36.187Z,11.35
2023-03-02T03:00:39.659Z,13.07
2023-03-02T03:01:43.903Z,12.50
2023-03-02T03:02:52.781Z,14.13
2023-03-02T03:04:03.346Z,12.25
2023-03-02T03:05:06.898Z,13.60
2023-03-02T03:06:18.883Z,10.05
2023-03-02T03:07:24.820Z,13.05
2023-03-02T03:08:46.957Z,12.48
2023-03-02T03:10:04.471Z,14.63
2023-03-02T03:11:11.151Z,12.48
2023-03-02T03:12:22.603Z,10.23
2023-03-02T03:13:25.623Z,11.25
2023-03-02T03:14:37.046Z,10.45
2023-03-02T03:15:40.075Z,8.65
2023-03-02T03:16:46.488Z,13.60
2023-03-02T03:17:57.244Z,9.35
2023-03-02T03:19:06.711Z,8.38
2023-03-02T03:20:11.038Z,10.77
2023-03-02T03:21:18.781Z,9.07
2023-03-02T03:22:21.917Z,9.35
2023-03-02T03:23:25.197Z,10.32
2023-03-02T03:24:30.655Z,11.27
2023-03-02T03:25:35.559Z,7.87
2023-03-02T03:26:38.607Z,10.25
2023-03-02T03:27:44.473Z,8.32
2023-03-02T03:28:47.807Z,8.50
2023-03-02T03:29:51.142Z,8.27
2023-03-02T03:30:54.194Z,9.40
2023-03-02T03:31:58.511Z,7.50
2023-03-02T03:33:01.544Z,10.35
2023-03-02T03:34:05.252Z,9.68
2023-03-02T03:35:12.037Z,7.90
2023-03-02T03:36:15.226Z,11.57
2023-03-02T03:37:20.459Z,10.18
2023-03-02T03:38:24.484Z,7.62
2023-03-02T03:39:31.388Z,6.47
2023-03-02T03:40:34.778Z,7.82
2023-03-02T03:41:37.663Z,8.05
2023-03-02T03:42:40.904Z,11.45
2023-03-02T03:43:43.829Z,8.15
2023-03-02T03:44:46.968Z,9.65
2023-03-02T03:45:52.435Z,8.02
2023-03-02T03:46:55.472Z,8.13
2023-03-02T03:47:58.549Z,10.93
2023-03-02T03:49:02.637Z,7.80
2023-03-02T03:50:06.184Z,8.82
2023-03-02T03:51:10.961Z,6.00
2023-03-02T03:52:14.200Z,7.28
2023-03-02T03:53:17.236Z,7.43
2023-03-02T03:54:20.410Z,7.28
2023-03-02T03:55:23.717Z,9.40
2023-03-02T03:56:30.255Z,6.55
2023-03-02T03:57:33.714Z,7.93
2023-03-02T03:58:40.072Z,7.07
2023-03-02T03:59:43.281Z,9.38
2023-03-02T04:00:48.269Z,7.55
2023-03-02T04:01:55.356Z,9.02
2023-03-02T04:02:58.542Z,6.28
2023-03-02T04:04:06.256Z,7.85
2023-03-02T04:05:09.773Z,9.32
2023-03-02T04:06:19.342Z,8.15
2023-03-02T04:07:22.386Z,6.55
2023-03-02T04:08:25.705Z,6.68
2023-03-02T04:09:29.538Z,7.15
2023-03-02T04:10:32.883Z,8.23
2023-03-02T04:11:39.284Z,9.27
2023-03-02T04:12:43.066Z,9.27
2023-03-02T04:13:46.214Z,9.38
2023-03-02T04:14:49.276Z,9.48
2023-03-02T04:15:52.469Z,7.85
2023-03-02T04:16:55.772Z,9.30
2023-03-02T04:17:58.748Z,7.55
2023-03-02T04:19:09.907Z,4.95
2023-03-02T04:20:18.736Z,9.57
2023-03-02T04:21:25.673Z,8.95
2023-03-02T04:22:28.668Z,6.90
2023-03-02T04:23:31.703Z,7.68
2023-03-02T04:24:34.729Z,6.40
2023-03-02T04:25:37.771Z,12.15
2023-03-02T04:26:42.931Z,8.55
2023-03-02T04:27:48.774Z,6.80
2023-03-02T04:28:52.206Z,5.90
2023-03-02T04:29:55.239Z,9.65
2023-03-02T04:30:58.383Z,7.68
2023-03-02T04:32:01.608Z,7.60
2023-03-02T04:33:04.674Z,6.20
2023-03-02T04:34:09.071Z,8.32
2023-03-02T04:35:13.844Z,8.65
2023-03-02T04:36:16.845Z,8.43
2023-03-02T04:37:19.833Z,6.57
2023-03-02T04:38:23.585Z,6.07
2023-03-02T04:39:27.287Z,8.68
2023-03-02T04:40:30.433Z,5.28
2023-03-02T04:41:33.627Z,7.55
2023-03-02T04:42:36.753Z,10.60
2023-03-02T04:43:39.782Z,6.53
2023-03-02T04:44:43.091Z,6.85
2023-03-02T04:45:46.048Z,7.87
2023-03-02T04:46:50.322Z,8.82
2023-03-02T04:47:53.429Z,5.87
2023-03-02T04:48:57.009Z,7.62
2023-03-02T04:50:01.826Z,7.72
2023-03-02T04:51:05.171Z,9.90
2023-03-02T04:52:08.391Z,6.97
2023-03-02T04:53:12.428Z,8.32
2023-03-02T04:54:19.440Z,8.00
2023-03-02T04:55:26.069Z,6.20
2023-03-02T04:56:29.306Z,9.05
2023-03-02T04:57:32.378Z,10.95
2023-03-02T04:58:35.673Z,9.77
2023-03-02T04:59:39.213Z,10.68
2023-03-02T05:00:42.289Z,6.82
2023-03-02T05:01:46.908Z,6.60
2023-03-02T05:02:50.128Z,8.93
2023-03-02T05:03:53.725Z,7.82
2023-03-02T05:04:56.845Z,10.60
2023-03-02T05:05:59.870Z,7.05
2023-03-02T05:07:02.908Z,6.32
2023-03-02T05:08:06.313Z,7.07
2023-03-02T05:09:09.763Z,7.93
2023-03-02T05:10:14.645Z,8.65
2023-03-02T05:11:24.886Z,8.35
2023-03-02T05:12:27.995Z,6.53
2023-03-02T05:13:31.125Z,7.90
2023-03-02T05:14:34.305Z,6.25
2023-03-02T05:15:40.753Z,7.22
2023-03-02T05:16:44.073Z,6.70
2023-03-02T05:17:47.147Z,7.28
2023-03-02T05:18:50.551Z,9.05
2023-03-02T05:19:53.659Z,6.70
2023-03-02T05:20:57.563Z,6.00
2023-03-02T05:22:00.993Z,7.93
2023-03-02T05:23:08.065Z,7.85
2023-03-02T05:24:12.180Z,11.45
2023-03-02T05:25:15.331Z,10.43
2023-03-02T05:26:19.014Z,7.03
2023-03-02T05:27:22.251Z,13.13
2023-03-02T05:28:27.265Z,12.00
2023-03-02T05:29:30.379Z,13.18
2023-03-02T05:30:38.062Z,7.28
2023-03-02T05:31:44.564Z,11.60
2023-03-02T05:32:47.545Z,5.28
2023-03-02T05:33:50.783Z,8.32
2023-03-02T05:34:53.940Z,7.47
2023-03-02T05:35:57.492Z,8.30
2023-03-02T05:37:00.529Z,7.35
2023-03-02T05:38:05.628Z,7.50
2023-03-02T05:39:09.304Z,6.95
2023-03-02T05:40:16.013Z,8.90
2023-03-02T05:41:20.052Z,6.87
2023-03-02T05:42:23.454Z,8.10
2023-03-02T05:43:26.691Z,8.18
2023-03-02T05:44:29.757Z,9.88
2023-03-02T05:45:36.961Z,12.65
2023-03-02T05:46:40.860Z,11.73
2023-03-02T05:47:43.972Z,8.65
2023-03-02T05:48:47.674Z,6.90
2023-03-02T05:49:50.584Z,6.72
2023-03-02T05:50:53.777Z,7.25
2023-03-02T05:51:56.982Z,7.22
2023-03-02T05:53:02.683Z,7.68
2023-03-02T05:54:05.733Z,6.43
2023-03-02T05:55:09.009Z,7.20
2023-03-02T05:56:12.049Z,6.57
2023-03-02T05:57:15.052Z,6.62
2023-03-02T05:58:20.541Z,6.32
2023-03-02T05:59:23.562Z,8.88
2023-03-02T06:00:26.637Z,6.05
2023-03-02T06:01:30.108Z,6.93
2023-03-02T06:02:33.113Z,5.85
2023-03-02T06:03:36.085Z,6.62
2023-03-02T06:04:43.411Z,5.37
2023-03-02T06:05:51.173Z,9.55
2023-03-02T06:06:54.252Z,6.72
2023-03-02T06:07:57.610Z,6.93
2023-03-02T06:09:03.266Z,4.80
2023-03-02T06:10:07.874Z,4.80
2023-03-02T06:11:12.459Z,7.40
2023-03-02T06:12:15.492Z,3.83
2023-03-02T06:13:18.589Z,9.30
2023-03-02T06:14:21.664Z,7.28
2023-03-02T06:15:24.739Z,6.25
2023-03-02T06:16:27.964Z,6.25
2023-03-02T06:17:31.071Z,6.68
2023-03-02T06:18:35.026Z,4.75
2023-03-02T06:19:38.357Z,3.75
2023-03-02T06:20:42.269Z,7.75
2023-03-02T06:21:45.303Z,8.02
2023-03-02T06:22:48.320Z,6.55
2023-03-02T06:23:51.539Z,7.00
2023-03-02T06:24:57.209Z,6.45
2023-03-02T06:26:00.705Z,7.12
2023-03-02T06:27:03.754Z,6.43
2023-03-02T06:28:06.694Z,4.35
2023-03-02T06:29:09.951Z,7.03
2023-03-02T06:30:17.987Z,6.93
2023-03-02T06:31:22.502Z,7.80
2023-03-02T06:32:25.701Z,7.50
2023-03-02T06:33:28.918Z,5.80
2023-03-02T06:34:33.572Z,6.37
2023-03-02T06:35:38.250Z,9.98
2023-03-02T06:36:41.651Z,6.00
2023-03-02T06:37:44.934Z,8.32
2023-03-02T06:38:48.431Z,5.20
2023-03-02T06:39:51.502Z,6.32
2023-03-02T06:40:54.577Z,5.18
2023-03-02T06:41:59.293Z,5.78
2023-03-02T06:43:04.233Z,7.28
2023-03-02T06:44:07.689Z,5.07
2023-03-02T06:45:11.441Z,7.28
2023-03-02T06:46:14.424Z,4.93
2023-03-02T06:47:18.034Z,6.85
2023-03-02T06:48:21.238Z,5.00
2023-03-02T06:49:25.158Z,4.53
2023-03-02T06:50:28.922Z,5.70
2023-03-02T06:51:32.769Z,5.85
2023-03-02T06:52:35.823Z,4.60
2023-03-02T06:53:38.869Z,4.93
2023-03-02T06:54:42.053Z,4.50
2023-03-02T06:55:48.295Z,5.90
2023-03-02T06:56:51.251Z,6.47
2023-03-02T06:57:54.209Z,4.43
2023-03-02T06:58:58.183Z,6.32
2023-03-02T07:00:12.200Z,7.53
2023-03-02T07:01:18.201Z,5.97
2023-03-02T07:02:21.264Z,5.30
2023-03-02T07:03:24.376Z,7.78
2023-03-02T07:04:28.861Z,5.85
2023-03-02T07:05:32.609Z,5.55
2023-03-02T07:06:35.710Z,5.10
2023-03-02T07:07:39.263Z,7.37
2023-03-02T07:08:42.425Z,6.68
2023-03-02T07:09:45.888Z,6.68
2023-03-02T07:10:48.982Z,5.10
2023-03-02T07:11:52.237Z,4.78
2023-03-02T07:12:55.528Z,5.70
2023-03-02T07:14:00.863Z,5.05
2023-03-02T07:15:04.254Z,6.55
2023-03-02T07:16:11.964Z,4.72
2023-03-02T07:17:14.868Z,6.57
2023-03-02T07:18:18.028Z,4.62
2023-03-02T07:19:21.558Z,6.82
2023-03-02T07:20:24.523Z,6.12
2023-03-02T07:21:31.213Z,4.95
2023-03-02T07:22:34.505Z,5.00
2023-03-02T07:23:37.796Z,8.68
2023-03-02T07:24:40.765Z,4.57
2023-03-02T07:25:43.756Z,6.37
2023-03-02T07:26:47.247Z,5.20
2023-03-02T07:27:50.507Z,4.15
2023-03-02T07:28:55.991Z,5.37
2023-03-02T07:29:59.038Z,6.68
2023-03-02T07:31:02.188Z,6.53
2023-03-02T07:32:07.125Z,5.93
2023-03-02T07:33:10.364Z,7.03
2023-03-02T07:34:13.341Z,4.68
2023-03-02T07:35:17.411Z,5.30
2023-03-02T07:36:20.876Z,6.93
2023-03-02T07:37:24.131Z,6.78
2023-03-02T07:38:27.661Z,9.40
2023-03-02T07:39:30.944Z,4.30
2023-03-02T07:40:34.334Z,3.72
2023-03-02T07:41:37.580Z,9.02
2023-03-02T07:42:42.186Z,7.35
2023-03-02T07:43:45.559Z,6.15
2023-03-02T07:44:48.569Z,5.53
2023-03-02T07:45:52.064Z,4.72
2023-03-02T07:46:55.245Z,5.57
2023-03-02T07:47:58.588Z,6.97
2023-03-02T07:49:02.636Z,5.30
2023-03-02T07:50:06.232Z,7.53
2023-03-02T07:51:11.091Z,5.68
2023-03-02T07:52:14.086Z,4.87
2023-03-02T07:53:17.332Z,4.95
2023-03-02T07:54:20.648Z,6.93
2023-03-02T07:55:23.763Z,5.97
2023-03-02T07:56:26.760Z,7.07
2023-03-02T07:57:30.167Z,6.12
2023-03-02T07:58:33.966Z,4.95
2023-03-02T07:59:38.223Z,6.00
2023-03-02T08:00:42.687Z,5.93
2023-03-02T08:01:45.803Z,6.70
2023-03-02T08:02:48.949Z,5.87
2023-03-02T08:03:52.126Z,7.95
2023-03-02T08:04:55.067Z,6.95
2023-03-02T08:05:58.215Z,5.60
2023-03-02T08:07:01.212Z,7.32
2023-03-02T08:08:04.370Z,6.28
2023-03-02T08:09:07.471Z,4.70
2023-03-02T08:10:11.304Z,5.43
2023-03-02T08:11:19.558Z,7.30
2023-03-02T08:12:22.614Z,6.82
2023-03-02T08:13:25.525Z,5.43
2023-03-02T08:14:28.631Z,5.60
2023-03-02T08:15:31.545Z,6.78
2023-03-02T08:16:34.781Z,6.12
2023-03-02T08:17:37.850Z,6.28
2023-03-02T08:18:42.947Z,5.45
2023-03-02T08:19:45.960Z,6.55
2023-03-02T08:20:48.930Z,6.03
2023-03-02T08:21:51.924Z,6.15
2023-03-02T08:22:55.146Z,8.05
2023-03-02T08:23:58.337Z,6.80
2023-03-02T08:25:01.361Z,8.57
2023-03-02T08:26:04.407Z,6.45
2023-03-02T08:27:08.370Z,4.43
2023-03-02T08:28:11.543Z,4.18
2023-03-02T08:29:14.759Z,5.35
2023-03-02T08:30:17.948Z,6.90
2023-03-02T08:31:22.574Z,5.10
2023-03-02T08:32:25.910Z,5.55
2023-03-02T08:33:30.597Z,5.97
2023-03-02T08:34:33.769Z,5.68
2023-03-02T08:35:36.784Z,8.20
2023-03-02T08:36:40.385Z,5.00
2023-03-02T08:37:43.344Z,8.48
2023-03-02T08:38:50.216Z,8.65
2023-03-02T08:39:53.320Z,5.55
2023-03-02T08:40:56.598Z,6.55
2023-03-02T08:41:59.597Z,7.60
2023-03-02T08:43:02.470Z,6.07
2023-03-02T08:44:05.544Z,8.50
2023-03-02T08:45:09.193Z,7.12
2023-03-02T08:46:14.521Z,8.90
2023-03-02T08:47:17.647Z,8.55
2023-03-02T08:48:24.324Z,5.22
2023-03-02T08:49:28.192Z,8.18
2023-03-02T08:50:31.654Z,6.25
2023-03-02T08:51:34.889Z,5.95
2023-03-02T08:52:38.094Z,7.85
2023-03-02T08:53:44.336Z,6.78
2023-03-02T08:54:47.304Z,5.80
2023-03-02T08:55:50.440Z,7.82
2023-03-02T08:56:53.518Z,6.37
2023-03-02T08:57:56.673Z,5.32
2023-03-02T08:59:03.976Z,7.32
2023-03-02T09:00:09.527Z,9.57
2023-03-02T09:01:21.467Z,10.13
2023-03-02T09:02:24.516Z,7.25
2023-03-02T09:03:27.883Z,6.45
2023-03-02T09:04:31.121Z,6.35
2023-03-02T09:05:34.530Z,11.20
2023-03-02T09:06:41.113Z,7.20
2023-03-02T09:07:44.715Z,8.93
2023-03-02T09:08:48.919Z,10.05
2023-03-02T09:09:51.868Z,6.75
2023-03-02T09:10:54.898Z,8.52
2023-03-02T09:11:57.838Z,8.60
2023-03-02T09:13:00.931Z,7.28
2023-03-02T09:14:04.615Z,11.82
2023-03-02T09:15:08.111Z,8.30
2023-03-02T09:16:11.504Z,8.30
2023-03-02T09:17:15.898Z,13.02
2023-03-02T09:18:19.180Z,9.50
2023-03-02T09:19:22.360Z,9.07
2023-03-02T09:20:25.777Z,12.05
2023-03-02T09:21:28.991Z,9.30
2023-03-02T09:22:36.217Z,8.00
2023-03-02T09:23:39.470Z,8.73
2023-03-02T09:24:42.526Z,9.30
2023-03-02T09:25:46.420Z,8.30
2023-03-02T09:26:49.809Z,10.23
2023-03-02T09:27:52.756Z,11.88
2023-03-02T09:28:56.794Z,9.02
2023-03-02T09:30:00.118Z,9.82
2023-03-02T09:31:04.904Z,7.95
2023-03-02T09:32:08.556Z,11.95
2023-03-02T09:33:11.471Z,8.98
2023-03-02T09:34:14.369Z,9.45
2023-03-02T09:35:17.434Z,11.30
2023-03-02T09:36:23.020Z,10.60
2023-03-02T09:37:27.541Z,10.85
2023-03-02T09:38:33.814Z,14.10
2023-03-02T09:39:38.731Z,12.30
2023-03-02T09:41:05.630Z,11.68
2023-03-02T09:42:42.947Z,11.20
2023-03-02T09:44:05.024Z,10.25
2023-03-02T09:45:11.161Z,10.38
2023-03-02T09:46:38.385Z,10.02
2023-03-02T09:48:24.382Z,14.77
2023-03-02T09:49:47.084Z,9.45
2023-03-02T09:51:02.434Z,7.47
2023-03-02T09:52:31.400Z,7.32
2023-03-02T09:54:00.742Z,9.13
2023-03-02T09:55:18.494Z,12.48
2023-03-02T09:56:22.031Z,8.52
2023-03-02T09:57:31.531Z,13.23
2023-03-02T09:58:39.805Z,10.45
2023-03-02T09:59:45.881Z,10.00
2023-03-02T10:00:51.328Z,8.45
2023-03-02T10:02:03.753Z,10.05
2023-03-02T10:03:17.373Z,8.82
2023-03-02T10:04:31.711Z,11.48
2023-03-02T10:05:48.294Z,9.23
2023-03-02T10:07:17.914Z,8.07
2023-03-02T10:08:31.351Z,8.55
2023-03-02T10:09:34.650Z,9.05
2023-03-02T10:10:49.419Z,11.05
2023-03-02T10:12:08.440Z,9.18
2023-03-02T10:13:20.219Z,10.85
2023-03-02T10:14:39.520Z,9.43
2023-03-02T10:16:04.259Z,11.32
2023-03-02T10:17:41.159Z,17.37
2023-03-02T10:18:59.133Z,16.30
2023-03-02T10:20:09.420Z,8.90
2023-03-02T10:21:40.964Z,9.35
2023-03-02T10:22:51.913Z,10.00
2023-03-02T10:24:13.133Z,11.48
2023-03-02T10:25:50.822Z,11.63
2023-03-02T10:26:58.541Z,9.75
2023-03-02T10:28:16.930Z,8.50
2023-03-02T10:29:39.212Z,11.30
2023-03-02T10:30:42.785Z,10.82
2023-03-02T10:31:47.369Z,8.55
2023-03-02T10:32:52.708Z,11.48
2023-03-02T10:33:56.328Z,10.32
2023-03-02T10:35:02.707Z,12.23
2023-03-02T10:36:13.498Z,13.30
2023-03-02T10:37:19.681Z,16.15
2023-03-02T10:38:25.821Z,10.38
2023-03-02T10:39:28.678Z,8.40
2023-03-02T10:40:41.908Z,9.27
2023-03-02T10:41:59.811Z,7.93
2023-03-02T10:43:04.539Z,12.30
2023-03-02T10:44:18.737Z,12.50
2023-03-02T10:45:21.509Z,9.68
2023-03-02T10:46:24.491Z,12.60
2023-03-02T10:47:29.774Z,10.32
2023-03-02T10:48:41.075Z,11.05
2023-03-02T10:49:48.130Z,12.25
2023-03-02T10:50:55.052Z,12.70
2023-03-02T10:52:07.006Z,8.55
2023-03-02T10:53:18.747Z,10.02
2023-03-02T10:54:22.069Z,11.30
2023-03-02T10:55:25.837Z,9.23
2023-03-02T10:56:30.825Z,8.65
2023-03-02T10:57:38.428Z,11.77
2023-03-02T10:58:41.651Z,11.50
2023-03-02T10:59:45.774Z,9.57
2023-03-02T11:01:01.046Z,10.15
2023-03-02T11:02:14.708Z,11.52
2023-03-02T11:03:22.291Z,10.35
2023-03-02T11:04:26.128Z,10.88
2023-03-02T11:05:37.168Z,7.68
2023-03-02T11:06:40.189Z,17.95
2023-03-02T11:07:53.048Z,15.95
2023-03-02T11:09:06.093Z,13.30
2023-03-02T11:10:21.362Z,10.23
2023-03-02T11:11:25.470Z,8.60
2023-03-02T11:12:29.928Z,11.80
2023-03-02T11:13:34.538Z,10.13
2023-03-02T11:14:38.461Z,12.45
2023-03-02T11:15:47.495Z,12.82
2023-03-02T11:16:53.628Z,13.35
2023-03-02T11:18:08.373Z,10.60
2023-03-02T11:19:26.310Z,10.18
2023-03-02T11:20:37.743Z,8.68
2023-03-02T11:22:09.679Z,9.15
2023-03-02T11:23:26.039Z,11.52
2023-03-02T11:24:49.386Z,11.82
2023-03-02T11:25:55.618Z,9.10
2023-03-02T11:27:13.092Z,10.60
2023-03-02T11:28:29.181Z,11.32
2023-03-02T11:29:49.300Z,12.07
2023-03-02T11:30:56.311Z,10.40
2023-03-02T11:32:39.802Z,7.30
2023-03-02T11:34:07.907Z,14.15
2023-03-02T11:35:18.009Z,9.85
2023-03-02T11:36:36.085Z,10.00
2023-03-02T11:38:07.362Z,8.40
2023-03-02T11:39:19.480Z,9.77
2023-03-02T11:40:26.691Z,9.93
2023-03-02T11:41:34.002Z,12.88
2023-03-02T11:42:41.785Z,11.18
2023-03-02T11:43:44.648Z,8.45
2023-03-02T11:44:48.939Z,10.32
2023-03-02T11:45:56.241Z,11.30
2023-03-02T11:47:02.589Z,9.10
2023-03-02T11:48:34.575Z,13.18
2023-03-02T11:49:44.662Z,8.63
2023-03-02T11:50:55.181Z,9.93
2023-03-02T11:52:00.909Z,7.22
2023-03-02T11:53:16.758Z,7.55
2023-03-02T11:54:41.468Z,8.48
2023-03-02T11:55:48.813Z,10.95
2023-03-02T11:56:51.748Z,11.02
2023-03-02T11:58:03.497Z,9.93
2023-03-02T11:59:21.407Z,9.07
2023-03-02T12:00:34.060Z,8.77
2023-03-02T12:01:39.382Z,9.88
2023-03-02T12:02:42.834Z,8.70
2023-03-02T12:03:46.670Z,9.70
2023-03-02T12:04:49.825Z,8.65
2023-03-02T12:05:52.726Z,9.43
2023-03-02T12:06:55.953Z,10.02
2023-03-02T12:08:26.074Z,10.52
2023-03-02T12:09:36.468Z,9.57
2023-03-02T12:10:42.462Z,11.10
2023-03-02T12:11:46.273Z,10.45
2023-03-02T12:13:02.980Z,9.32
2023-03-02T12:14:27.137Z,12.05
2023-03-02T12:15:38.547Z,8.60
2023-03-02T12:16:43.280Z,9.80
2023-03-02T12:17:46.725Z,10.68
2023-03-02T12:18:53.779Z,10.68
2023-03-02T12:20:09.390Z,10.32
2023-03-02T12:21:16.680Z,9.88
2023-03-02T12:22:35.359Z,9.60
2023-03-02T12:23:44.383Z,11.30
2023-03-02T12:24:47.535Z,8.35
2023-03-02T12:26:01.110Z,8.25
2023-03-02T12:27:16.847Z,7.37
2023-03-02T12:28:40.320Z,9.60
2023-03-02T12:29:52.618Z,11.38
2023-03-02T12:31:12.050Z,9.93
2023-03-02T12:32:30.451Z,8.20
2023-03-02T12:33:38.278Z,10.43
2023-03-02T12:34:52.091Z,9.95
2023-03-02T12:36:05.115Z,10.93
2023-03-02T12:37:14.222Z,11.30
2023-03-02T12:38:34.192Z,11.68
2023-03-02T12:39:43.237Z,10.98
2023-03-02T12:40:57.232Z,8.57
2023-03-02T12:42:06.247Z,9.40
2023-03-02T12:43:29.735Z,8.45
2023-03-02T12:45:04.246Z,11.57
2023-03-02T12:46:28.136Z,9.32
2023-03-02T12:47:32.969Z,11.38
2023-03-02T12:48:47.546Z,10.40
2023-03-02T12:49:55.179Z,11.27
2023-03-02T12:51:04.337Z,10.10
2023-03-02T12:52:27.669Z,11.05
2023-03-02T12:53:31.068Z,9.55
2023-03-02T12:54:35.047Z,7.43
2023-03-02T12:55:39.171Z,9.27
2023-03-02T12:56:42.629Z,8.77
2023-03-02T12:57:51.350Z,9.55
2023-03-02T12:58:55.356Z,8.88
2023-03-02T13:00:02.109Z,10.32
2023-03-02T13:01:07.088Z,9.35
2023-03-02T13:02:13.126Z,7.97
2023-03-02T13:03:16.192Z,9.75
2023-03-02T13:04:28.542Z,14.70
2023-03-02T13:05:34.674Z,11.93
2023-03-02T13:06:39.557Z,13.48
2023-03-02T13:07:49.727Z,9.00
2023-03-02T13:08:58.841Z,9.57
2023-03-02T13:10:07.017Z,8.77
2023-03-02T13:11:10.735Z,7.72
2023-03-02T13:12:14.653Z,9.48
2023-03-02T13:13:25.536Z,8.98
2023-03-02T13:14:29.329Z,9.60
2023-03-02T13:15:32.264Z,9.68
2023-03-02T13:16:37.200Z,9.85
2023-03-02T13:17:40.340Z,9.55
2023-03-02T13:18:45.052Z,9.07
2023-03-02T13:19:50.714Z,10.60
2023-03-02T13:20:54.604Z,9.45
2023-03-02T13:21:58.249Z,7.00
2023-03-02T13:23:01.686Z,7.28
2023-03-02T13:24:25.172Z,11.27
2023-03-02T13:25:31.261Z,9.30
2023-03-02T13:26:37.537Z,7.10
2023-03-02T13:27:40.626Z,6.78
2023-03-02T13:28:45.394Z,8.38
2023-03-02T13:29:49.924Z,9.35
2023-03-02T13:30:58.165Z,11.43
2023-03-02T13:32:22.668Z,8.68
2023-03-02T13:33:27.160Z,9.57
2023-03-02T13:34:33.441Z,8.10
2023-03-02T13:35:38.240Z,11.15
2023-03-02T13:36:41.703Z,9.15
2023-03-02T13:37:46.197Z,10.10
2023-03-02T13:38:53.391Z,8.88
2023-03-02T13:40:01.861Z,10.23
2023-03-02T13:41:05.312Z,10.13
2023-03-02T13:42:26.428Z,9.20
2023-03-02T13:43:29.654Z,10.60
2023-03-02T13:44:36.291Z,12.02
2023-03-02T13:45:39.816Z,7.85
2023-03-02T13:46:42.798Z,9.30
2023-03-02T13:47:46.161Z,8.73
2023-03-02T13:49:11.568Z,9.18
2023-03-02T13:50:25.458Z,8.18
2023-03-02T13:51:33.043Z,9.20
2023-03-02T13:52:36.431Z,8.60
2023-03-02T13:53:42.692Z,9.18
2023-03-02T13:54:47.489Z,7.30
2023-03-02T13:55:52.740Z,9.23
2023-03-02T13:56:58.804Z,8.95
2023-03-02T13:58:02.568Z,8.63
2023-03-02T13:59:15.152Z,9.75
2023-03-02T14:00:31.899Z,10.27
2023-03-02T14:01:34.822Z,9.80
2023-03-02T14:02:37.728Z,9.32
2023-03-02T14:03:41.162Z,12.45
2023-03-02T14:04:44.191Z,10.45
2023-03-02T14:05:47.212Z,13.50
2023-03-02T14:06:54.900Z,12.50
2023-03-02T14:07:57.980Z,9.10
2023-03-02T14:09:00.997Z,9.18
2023-03-02T14:10:04.596Z,9.65
2023-03-02T14:11:12.108Z,9.50
2023-03-02T14:12:26.289Z,9.30
2023-03-02T14:13:43.635Z,8.52
2023-03-02T14:14:47.087Z,12.70
2023-03-02T14:15:52.901Z,9.23
2023-03-02T14:16:56.813Z,7.40
2023-03-02T14:18:00.516Z,8.80
2023-03-02T14:19:04.403Z,10.18
2023-03-02T14:20:10.791Z,10.43
2023-03-02T14:21:24.895Z,10.00
2023-03-02T14:22:29.805Z,7.32
2023-03-02T14:23:32.994Z,9.45
2023-03-02T14:24:35.907Z,8.13
2023-03-02T14:25:39.091Z,9.65
2023-03-02T14:26:45.215Z,7.50
2023-03-02T14:27:48.681Z,7.50
2023-03-02T14:29:04.605Z,8.68
2023-03-02T14:30:21.148Z,7.20
2023-03-02T14:31:27.690Z,8.35
2023-03-02T14:32:31.621Z,10.40
2023-03-02T14:33:35.076Z,9.05
2023-03-02T14:34:38.252Z,9.68
2023-03-02T14:35:41.869Z,8.80
2023-03-02T14:36:47.857Z,7.57
2023-03-02T14:37:51.187Z,10.10
2023-03-02T14:39:03.230Z,10.88